sensor_id;sensor_type;location;lat;lon;timestamp;P1;durP1;ratioP1;P2;durP2;ratioP2
7933;SDS011;4012;48.896;9.192;2023-03-03T00:01:14;30.73;;;17.00;;
7933;SDS011;4012;48.896;9.192;2023-03-03T00:03:39;28.73;;;16.53;;
7933;SDS011;4012;48.896;9.192;2023-03-03T00:06:06;30.13;;;17.23;;
7933;SDS011;4012;48.896;9.192;2023-03-03T00:08:35;35.77;;;16.60;;
7933;SDS011;4012;48.896;9.192;2023-03-03T00:11:01;27.03;;;17.07;;
7933;SDS011;4012;48.896;9.192;2023-03-03T00:13:29;28.80;;;17.10;;
7933;SDS011;4012;48.896;9.192;2023-03-03T00:16:13;26.30;;;16.67;;
7933;SDS011;4012;48.896;9.192;2023-03-03T00:18:45;25.20;;;16.50;;
7933;SDS011;4012;48.896;9.192;2023-03-03T00:24:02;33.47;;;18.13;;
7933;SDS011;4012;48.896;9.192;2023-03-03T00:26:38;28.60;;;17.23;;
7933;SDS011;4012;48.896;9.192;2023-03-03T00:34:39;28.67;;;16.77;;
7933;SDS011;4012;48.896;9.192;2023-03-03T00:42:55;27.37;;;16.90;;
7933;SDS011;4012;48.896;9.192;2023-03-03T00:50:59;29.33;;;17.10;;
7933;SDS011;4012;48.896;9.192;2023-03-03T00:53:30;38.63;;;17.67;;
7933;SDS011;4012;48.896;9.192;2023-03-03T00:55:56;32.60;;;17.50;;
7933;SDS011;4012;48.896;9.192;2023-03-03T00:58:22;30.63;;;17.33;;
7933;SDS011;4012;48.896;9.192;2023-03-03T01:00:50;29.43;;;17.40;;
7933;SDS011;4012;48.896;9.192;2023-03-03T01:03:21;32.43;;;18.03;;
7933;SDS011;4012;48.896;9.192;2023-03-03T01:05:49;33.77;;;18.93;;
7933;SDS011;4012;48.896;9.192;2023-03-03T01:08:15;30.73;;;19.00;;
7933;SDS011;4012;48.896;9.192;2023-03-03T01:10:42;31.83;;;17.17;;
7933;SDS011;4012;48.896;9.192;2023-03-03T01:13:13;34.63;;;18.10;;
7933;SDS011;4012;48.896;9.192;2023-03-03T01:15:39;30.57;;;17.37;;
7933;SDS011;4012;48.896;9.192;2023-03-03T01:18:05;31.50;;;18.20;;
7933;SDS011;4012;48.896;9.192;2023-03-03T01:20:31;30.93;;;18.23;;
7933;SDS011;4012;48.896;9.192;2023-03-03T01:22:57;27.20;;;16.23;;
7933;SDS011;4012;48.896;9.192;2023-03-03T01:25:22;29.53;;;17.73;;
7933;SDS011;4012;48.896;9.192;2023-03-03T01:27:48;29.30;;;17.63;;
7933;SDS011;4012;48.896;9.192;2023-03-03T01:30:14;27.23;;;16.63;;
7933;SDS011;4012;48.896;9.192;2023-03-03T01:32:39;31.27;;;18.70;;
7933;SDS011;4012;48.896;9.192;2023-03-03T01:35:05;31.87;;;17.67;;
7933;SDS011;4012;48.896;9.192;2023-03-03T01:37:33;27.63;;;16.67;;
7933;SDS011;4012;48.896;9.192;2023-03-03T01:39:59;27.17;;;16.87;;
7933;SDS011;4012;48.896;9.192;2023-03-03T01:42:25;31.03;;;19.37;;
7933;SDS011;4012;48.896;9.192;2023-03-03T01:45:13;29.93;;;17.03;;
7933;SDS011;4012;48.896;9.192;2023-03-03T01:47:46;30.27;;;17.37;;
7933;SDS011;4012;48.896;9.192;2023-03-03T01:50:20;29.40;;;18.17;;
7933;SDS011;4012;48.896;9.192;2023-03-03T01:52:55;31.43;;;18.17;;
7933;SDS011;4012;48.896;9.192;2023-03-03T01:55:24;35.20;;;19.60;;
7933;SDS011;4012;48.896;9.192;2023-03-03T01:58:06;35.83;;;19.60;;
7933;SDS011;4012;48.896;9.192;2023-03-03T02:00:35;33.27;;;18.27;;
7933;SDS011;4012;48.896;9.192;2023-03-03T02:03:03;35.93;;;19.50;;
7933;SDS011;4012;48.896;9.192;2023-03-03T02:05:29;31.13;;;19.17;;
7933;SDS011;4012;48.896;9.192;2023-03-03T02:07:55;34.17;;;18.13;;
7933;SDS011;4012;48.896;9.192;2023-03-03T02:10:21;33.70;;;20.83;;
7933;SDS011;4012;48.896;9.192;2023-03-03T02:12:48;39.47;;;17.70;;
7933;SDS011;4012;48.896;9.192;2023-03-03T02:17:53;31.57;;;17.90;;
7933;SDS011;4012;48.896;9.192;2023-03-03T02:21:22;31.63;;;17.77;;
7933;SDS011;4012;48.896;9.192;2023-03-03T02:28:52;33.30;;;18.87;;
7933;SDS011;4012;48.896;9.192;2023-03-03T02:31:20;29.93;;;18.37;;
7933;SDS011;4012;48.896;9.192;2023-03-03T02:33:49;32.70;;;18.53;;
7933;SDS011;4012;48.896;9.192;2023-03-03T02:36:21;31.30;;;17.70;;
7933;SDS011;4012;48.896;9.192;2023-03-03T02:41:42;31.17;;;17.37;;
7933;SDS011;4012;48.896;9.192;2023-03-03T02:44:13;41.27;;;19.20;;
7933;SDS011;4012;48.896;9.192;2023-03-03T02:46:44;27.60;;;18.03;;
7933;SDS011;4012;48.896;9.192;2023-03-03T02:49:12;33.30;;;17.50;;
7933;SDS011;4012;48.896;9.192;2023-03-03T02:51:39;33.63;;;20.17;;
7933;SDS011;4012;48.896;9.192;2023-03-03T02:54:06;33.73;;;19.23;;
7933;SDS011;4012;48.896;9.192;2023-03-03T02:56:33;36.03;;;18.13;;
7933;SDS011;4012;48.896;9.192;2023-03-03T02:58:59;31.53;;;18.47;;
7933;SDS011;4012;48.896;9.192;2023-03-03T03:01:25;32.93;;;18.73;;
7933;SDS011;4012;48.896;9.192;2023-03-03T03:03:50;30.17;;;18.00;;
7933;SDS011;4012;48.896;9.192;2023-03-03T03:06:16;32.93;;;18.87;;
7933;SDS011;4012;48.896;9.192;2023-03-03T03:08:41;29.07;;;17.03;;
7933;SDS011;4012;48.896;9.192;2023-03-03T03:11:07;32.40;;;18.73;;
7933;SDS011;4012;48.896;9.192;2023-03-03T03:13:33;30.67;;;17.37;;
7933;SDS011;4012;48.896;9.192;2023-03-03T03:15:59;27.47;;;17.10;;
7933;SDS011;4012;48.896;9.192;2023-03-03T03:18:25;29.07;;;17.57;;
7933;SDS011;4012;48.896;9.192;2023-03-03T03:20:52;32.73;;;18.57;;
7933;SDS011;4012;48.896;9.192;2023-03-03T03:23:17;28.10;;;17.57;;
7933;SDS011;4012;48.896;9.192;2023-03-03T03:25:45;35.13;;;18.83;;
7933;SDS011;4012;48.896;9.192;2023-03-03T03:28:12;32.97;;;18.07;;
7933;SDS011;4012;48.896;9.192;2023-03-03T03:30:41;36.37;;;18.83;;
7933;SDS011;4012;48.896;9.192;2023-03-03T03:33:10;36.40;;;19.50;;
7933;SDS011;4012;48.896;9.192;2023-03-03T03:35:36;30.57;;;16.90;;
7933;SDS011;4012;48.896;9.192;2023-03-03T03:38:04;29.57;;;16.57;;
7933;SDS011;4012;48.896;9.192;2023-03-03T03:40:30;27.50;;;17.13;;
7933;SDS011;4012;48.896;9.192;2023-03-03T03:42:55;30.63;;;18.17;;
7933;SDS011;4012;48.896;9.192;2023-03-03T03:45:21;30.03;;;16.93;;
7933;SDS011;4012;48.896;9.192;2023-03-03T03:47:46;31.97;;;18.37;;
7933;SDS011;4012;48.896;9.192;2023-03-03T03:50:12;28.50;;;16.53;;
7933;SDS011;4012;48.896;9.192;2023-03-03T03:52:38;32.83;;;17.93;;
7933;SDS011;4012;48.896;9.192;2023-03-03T03:55:04;37.27;;;19.77;;
7933;SDS011;4012;48.896;9.192;2023-03-03T03:57:30;34.67;;;18.93;;
7933;SDS011;4012;48.896;9.192;2023-03-03T03:59:56;33.20;;;19.27;;
7933;SDS011;4012;48.896;9.192;2023-03-03T04:02:21;31.50;;;19.47;;
7933;SDS011;4012;48.896;9.192;2023-03-03T04:04:47;32.93;;;18.30;;
7933;SDS011;4012;48.896;9.192;2023-03-03T04:07:12;33.10;;;18.13;;
7933;SDS011;4012;48.896;9.192;2023-03-03T04:09:38;28.07;;;17.83;;
7933;SDS011;4012;48.896;9.192;2023-03-03T04:12:04;36.37;;;19.27;;
7933;SDS011;4012;48.896;9.192;2023-03-03T04:14:29;28.90;;;16.53;;
7933;SDS011;4012;48.896;9.192;2023-03-03T04:16:55;33.87;;;18.73;;
7933;SDS011;4012;48.896;9.192;2023-03-03T04:19:21;33.87;;;17.50;;
7933;SDS011;4012;48.896;9.192;2023-03-03T04:21:47;31.20;;;18.83;;
7933;SDS011;4012;48.896;9.192;2023-03-03T04:24:13;32.17;;;17.77;;
7933;SDS011;4012;48.896;9.192;2023-03-03T04:26:39;34.77;;;18.03;;
7933;SDS011;4012;48.896;9.192;2023-03-03T04:29:04;33.37;;;18.20;;
7933;SDS011;4012;48.896;9.192;2023-03-03T04:31:30;34.73;;;18.20;;
7933;SDS011;4012;48.896;9.192;2023-03-03T04:33:56;37.07;;;19.57;;
7933;SDS011;4012;48.896;9.192;2023-03-03T04:36:22;34.57;;;19.20;;
7933;SDS011;4012;48.896;9.192;2023-03-03T04:38:48;29.40;;;16.57;;
7933;SDS011;4012;48.896;9.192;2023-03-03T04:41:14;31.80;;;19.23;;
7933;SDS011;4012;48.896;9.192;2023-03-03T04:43:39;34.33;;;18.47;;
7933;SDS011;4012;48.896;9.192;2023-03-03T04:46:05;33.37;;;18.27;;
7933;SDS011;4012;48.896;9.192;2023-03-03T04:48:31;32.13;;;18.50;;
7933;SDS011;4012;48.896;9.192;2023-03-03T04:50:57;30.90;;;17.37;;
7933;SDS011;4012;48.896;9.192;2023-03-03T04:53:23;30.53;;;17.23;;
7933;SDS011;4012;48.896;9.192;2023-03-03T04:55:49;33.23;;;18.20;;
7933;SDS011;4012;48.896;9.192;2023-03-03T04:58:16;33.50;;;18.53;;
7933;SDS011;4012;48.896;9.192;2023-03-03T05:00:43;29.83;;;17.83;;
7933;SDS011;4012;48.896;9.192;2023-03-03T05:03:10;33.40;;;17.70;;
7933;SDS011;4012;48.896;9.192;2023-03-03T05:05:36;31.47;;;17.43;;
7933;SDS011;4012;48.896;9.192;2023-03-03T05:08:02;28.87;;;16.87;;
7933;SDS011;4012;48.896;9.192;2023-03-03T05:10:28;34.37;;;17.23;;
7933;SDS011;4012;48.896;9.192;2023-03-03T05:12:54;33.07;;;17.73;;
7933;SDS011;4012;48.896;9.192;2023-03-03T05:15:19;28.97;;;16.93;;
7933;SDS011;4012;48.896;9.192;2023-03-03T05:17:45;28.80;;;17.53;;
7933;SDS011;4012;48.896;9.192;2023-03-03T05:20:11;29.70;;;18.77;;
7933;SDS011;4012;48.896;9.192;2023-03-03T05:22:37;30.40;;;17.80;;
7933;SDS011;4012;48.896;9.192;2023-03-03T05:25:03;27.03;;;16.97;;
7933;SDS011;4012;48.896;9.192;2023-03-03T05:27:29;30.50;;;17.27;;
7933;SDS011;4012;48.896;9.192;2023-03-03T05:29:55;27.33;;;16.33;;
7933;SDS011;4012;48.896;9.192;2023-03-03T05:32:20;34.83;;;18.27;;
7933;SDS011;4012;48.896;9.192;2023-03-03T05:34:46;28.90;;;15.47;;
7933;SDS011;4012;48.896;9.192;2023-03-03T05:37:11;27.87;;;16.13;;
7933;SDS011;4012;48.896;9.192;2023-03-03T05:39:37;30.20;;;16.93;;
7933;SDS011;4012;48.896;9.192;2023-03-03T05:42:03;27.73;;;15.23;;
7933;SDS011;4012;48.896;9.192;2023-03-03T05:44:29;26.90;;;16.10;;
7933;SDS011;4012;48.896;9.192;2023-03-03T05:46:54;27.30;;;15.97;;
7933;SDS011;4012;48.896;9.192;2023-03-03T05:49:21;26.23;;;16.73;;
7933;SDS011;4012;48.896;9.192;2023-03-03T05:51:47;23.37;;;14.67;;
7933;SDS011;4012;48.896;9.192;2023-03-03T05:54:13;26.53;;;16.77;;
7933;SDS011;4012;48.896;9.192;2023-03-03T05:56:38;29.00;;;16.10;;
7933;SDS011;4012;48.896;9.192;2023-03-03T05:59:04;27.60;;;16.30;;
7933;SDS011;4012;48.896;9.192;2023-03-03T06:01:29;29.93;;;17.13;;
7933;SDS011;4012;48.896;9.192;2023-03-03T06:03:55;32.63;;;17.50;;
7933;SDS011;4012;48.896;9.192;2023-03-03T06:06:20;29.37;;;15.97;;
7933;SDS011;4012;48.896;9.192;2023-03-03T06:08:46;31.43;;;15.30;;
7933;SDS011;4012;48.896;9.192;2023-03-03T06:11:11;28.07;;;14.90;;
7933;SDS011;4012;48.896;9.192;2023-03-03T06:13:37;24.10;;;13.57;;
7933;SDS011;4012;48.896;9.192;2023-03-03T06:16:04;29.90;;;16.13;;
7933;SDS011;4012;48.896;9.192;2023-03-03T06:18:30;25.63;;;16.03;;
7933;SDS011;4012;48.896;9.192;2023-03-03T06:20:56;25.33;;;14.97;;
7933;SDS011;4012;48.896;9.192;2023-03-03T06:23:22;29.43;;;15.13;;
7933;SDS011;4012;48.896;9.192;2023-03-03T06:25:47;26.17;;;14.80;;
7933;SDS011;4012;48.896;9.192;2023-03-03T06:28:13;28.30;;;14.73;;
7933;SDS011;4012;48.896;9.192;2023-03-03T06:30:39;22.17;;;14.27;;
7933;SDS011;4012;48.896;9.192;2023-03-03T06:33:05;28.53;;;14.40;;
7933;SDS011;4012;48.896;9.192;2023-03-03T06:35:30;26.80;;;14.77;;
7933;SDS011;4012;48.896;9.192;2023-03-03T06:37:56;24.70;;;14.07;;
7933;SDS011;4012;48.896;9.192;2023-03-03T06:40:21;29.30;;;15.60;;
7933;SDS011;4012;48.896;9.192;2023-03-03T06:42:47;24.23;;;15.00;;
7933;SDS011;4012;48.896;9.192;2023-03-03T06:45:13;22.97;;;14.40;;
7933;SDS011;4012;48.896;9.192;2023-03-03T06:47:39;30.53;;;17.33;;
7933;SDS011;4012;48.896;9.192;2023-03-03T06:50:05;33.80;;;16.20;;
7933;SDS011;4012;48.896;9.192;2023-03-03T06:52:32;30.73;;;16.90;;
7933;SDS011;4012;48.896;9.192;2023-03-03T06:54:59;31.47;;;18.77;;
7933;SDS011;4012;48.896;9.192;2023-03-03T06:57:33;32.03;;;17.73;;
7933;SDS011;4012;48.896;9.192;2023-03-03T07:00:05;26.13;;;15.70;;
7933;SDS011;4012;48.896;9.192;2023-03-03T07:02:34;22.47;;;14.53;;
7933;SDS011;4012;48.896;9.192;2023-03-03T07:05:00;24.37;;;14.40;;
7933;SDS011;4012;48.896;9.192;2023-03-03T07:07:25;20.37;;;13.83;;
7933;SDS011;4012;48.896;9.192;2023-03-03T07:09:55;23.40;;;13.57;;
7933;SDS011;4012;48.896;9.192;2023-03-03T07:12:22;25.13;;;13.63;;
7933;SDS011;4012;48.896;9.192;2023-03-03T07:14:51;23.00;;;15.03;;
7933;SDS011;4012;48.896;9.192;2023-03-03T07:17:23;21.20;;;12.93;;
7933;SDS011;4012;48.896;9.192;2023-03-03T07:19:49;21.53;;;13.93;;
7933;SDS011;4012;48.896;9.192;2023-03-03T07:22:19;24.47;;;14.40;;
7933;SDS011;4012;48.896;9.192;2023-03-03T07:24:49;23.07;;;13.57;;
7933;SDS011;4012;48.896;9.192;2023-03-03T07:29:50;23.50;;;13.87;;
7933;SDS011;4012;48.896;9.192;2023-03-03T07:34:47;20.07;;;12.97;;
7933;SDS011;4012;48.896;9.192;2023-03-03T07:37:33;21.17;;;13.07;;
7933;SDS011;4012;48.896;9.192;2023-03-03T07:40:05;22.73;;;12.80;;
7933;SDS011;4012;48.896;9.192;2023-03-03T07:43:26;19.07;;;12.40;;
7933;SDS011;4012;48.896;9.192;2023-03-03T07:48:47;23.43;;;13.20;;
7933;SDS011;4012;48.896;9.192;2023-03-03T07:51:20;19.40;;;12.80;;
7933;SDS011;4012;48.896;9.192;2023-03-03T07:53:49;20.40;;;13.20;;
7933;SDS011;4012;48.896;9.192;2023-03-03T07:56:29;20.43;;;13.33;;
7933;SDS011;4012;48.896;9.192;2023-03-03T07:58:59;20.43;;;12.67;;
7933;SDS011;4012;48.896;9.192;2023-03-03T08:01:41;15.80;;;11.73;;
7933;SDS011;4012;48.896;9.192;2023-03-03T08:04:35;21.30;;;13.37;;
7933;SDS011;4012;48.896;9.192;2023-03-03T08:07:16;22.03;;;13.53;;
7933;SDS011;4012;48.896;9.192;2023-03-03T08:10:25;19.73;;;13.80;;
7933;SDS011;4012;48.896;9.192;2023-03-03T08:12:53;23.43;;;13.00;;
7933;SDS011;4012;48.896;9.192;2023-03-03T08:15:20;20.00;;;12.93;;
7933;SDS011;4012;48.896;9.192;2023-03-03T08:17:52;19.00;;;13.30;;
7933;SDS011;4012;48.896;9.192;2023-03-03T08:22:57;19.73;;;13.70;;
7933;SDS011;4012;48.896;9.192;2023-03-03T08:25:23;17.40;;;12.53;;
7933;SDS011;4012;48.896;9.192;2023-03-03T08:27:48;18.03;;;13.23;;
7933;SDS011;4012;48.896;9.192;2023-03-03T08:30:14;17.10;;;13.03;;
7933;SDS011;4012;48.896;9.192;2023-03-03T08:32:40;16.60;;;12.43;;
7933;SDS011;4012;48.896;9.192;2023-03-03T08:35:05;18.83;;;12.80;;
7933;SDS011;4012;48.896;9.192;2023-03-03T08:37:31;17.60;;;13.03;;
7933;SDS011;4012;48.896;9.192;2023-03-03T08:39:57;18.93;;;12.43;;
7933;SDS011;4012;48.896;9.192;2023-03-03T08:42:22;18.93;;;13.53;;
7933;SDS011;4012;48.896;9.192;2023-03-03T08:44:48;16.43;;;13.60;;
7933;SDS011;4012;48.896;9.192;2023-03-03T08:47:13;18.70;;;13.53;;
7933;SDS011;4012;48.896;9.192;2023-03-03T08:49:39;18.47;;;14.77;;
7933;SDS011;4012;48.896;9.192;2023-03-03T08:52:05;16.53;;;12.73;;
7933;SDS011;4012;48.896;9.192;2023-03-03T08:54:30;16.67;;;13.07;;
7933;SDS011;4012;48.896;9.192;2023-03-03T08:56:56;15.40;;;12.83;;
7933;SDS011;4012;48.896;9.192;2023-03-03T08:59:21;19.53;;;14.03;;
7933;SDS011;4012;48.896;9.192;2023-03-03T09:01:47;16.30;;;12.93;;
7933;SDS011;4012;48.896;9.192;2023-03-03T09:04:13;17.33;;;13.13;;
7933;SDS011;4012;48.896;9.192;2023-03-03T09:06:38;19.80;;;13.90;;
7933;SDS011;4012;48.896;9.192;2023-03-03T09:09:04;17.63;;;13.43;;
7933;SDS011;4012;48.896;9.192;2023-03-03T09:11:30;19.70;;;13.20;;
7933;SDS011;4012;48.896;9.192;2023-03-03T09:14:13;21.20;;;14.43;;
7933;SDS011;4012;48.896;9.192;2023-03-03T09:16:41;19.33;;;13.87;;
7933;SDS011;4012;48.896;9.192;2023-03-03T09:19:15;19.83;;;14.47;;
7933;SDS011;4012;48.896;9.192;2023-03-03T09:21:55;24.37;;;17.10;;
7933;SDS011;4012;48.896;9.192;2023-03-03T09:24:29;23.07;;;15.10;;
7933;SDS011;4012;48.896;9.192;2023-03-03T09:26:56;20.87;;;15.13;;
7933;SDS011;4012;48.896;9.192;2023-03-03T09:29:26;18.27;;;13.83;;
7933;SDS011;4012;48.896;9.192;2023-03-03T09:32:01;19.23;;;14.10;;
7933;SDS011;4012;48.896;9.192;2023-03-03T09:34:50;20.17;;;13.87;;
7933;SDS011;4012;48.896;9.192;2023-03-03T09:39:50;29.53;;;22.17;;
7933;SDS011;4012;48.896;9.192;2023-03-03T09:48:01;19.67;;;13.87;;
7933;SDS011;4012;48.896;9.192;2023-03-03T09:53:35;20.83;;;14.27;;
7933;SDS011;4012;48.896;9.192;2023-03-03T09:56:30;18.70;;;12.70;;
7933;SDS011;4012;48.896;9.192;2023-03-03T10:04:42;24.43;;;16.03;;
7933;SDS011;4012;48.896;9.192;2023-03-03T10:10:05;18.23;;;13.07;;
7933;SDS011;4012;48.896;9.192;2023-03-03T10:13:10;19.77;;;13.27;;
7933;SDS011;4012;48.896;9.192;2023-03-03T10:22:02;19.07;;;13.83;;
7933;SDS011;4012;48.896;9.192;2023-03-03T10:30:34;17.90;;;14.13;;
7933;SDS011;4012;48.896;9.192;2023-03-03T10:41:12;18.43;;;13.63;;
7933;SDS011;4012;48.896;9.192;2023-03-03T10:49:26;18.40;;;13.53;;
7933;SDS011;4012;48.896;9.192;2023-03-03T11:00:24;16.97;;;12.63;;
7933;SDS011;4012;48.896;9.192;2023-03-03T11:03:00;18.20;;;13.50;;
7933;SDS011;4012;48.896;9.192;2023-03-03T11:06:00;19.00;;;13.90;;
7933;SDS011;4012;48.896;9.192;2023-03-03T11:16:41;17.00;;;13.07;;
7933;SDS011;4012;48.896;9.192;2023-03-03T11:22:38;16.83;;;12.67;;
7933;SDS011;4012;48.896;9.192;2023-03-03T11:34:21;15.83;;;11.27;;
7933;SDS011;4012;48.896;9.192;2023-03-03T11:37:07;18.43;;;12.43;;
7933;SDS011;4012;48.896;9.192;2023-03-03T11:39:37;17.03;;;11.60;;
7933;SDS011;4012;48.896;9.192;2023-03-03T11:42:18;17.43;;;11.97;;
7933;SDS011;4012;48.896;9.192;2023-03-03T11:44:49;17.83;;;12.77;;
7933;SDS011;4012;48.896;9.192;2023-03-03T11:47:27;17.53;;;11.63;;
7933;SDS011;4012;48.896;9.192;2023-03-03T11:50:19;20.03;;;13.50;;
7933;SDS011;4012;48.896;9.192;2023-03-03T11:58:05;16.17;;;11.93;;
7933;SDS011;4012;48.896;9.192;2023-03-03T12:00:51;17.83;;;12.90;;
7933;SDS011;4012;48.896;9.192;2023-03-03T12:09:07;17.73;;;12.00;;
7933;SDS011;4012;48.896;9.192;2023-03-03T12:11:58;17.87;;;11.63;;
7933;SDS011;4012;48.896;9.192;2023-03-03T12:17:45;17.47;;;12.10;;
7933;SDS011;4012;48.896;9.192;2023-03-03T12:28:27;20.70;;;12.40;;
7933;SDS011;4012;48.896;9.192;2023-03-03T12:34:04;22.57;;;12.60;;
7933;SDS011;4012;48.896;9.192;2023-03-03T12:39:22;17.33;;;12.93;;
7933;SDS011;4012;48.896;9.192;2023-03-03T12:44:37;17.83;;;12.30;;
7933;SDS011;4012;48.896;9.192;2023-03-03T12:47:24;20.23;;;13.17;;
7933;SDS011;4012;48.896;9.192;2023-03-03T12:57:55;20.20;;;13.10;;
7933;SDS011;4012;48.896;9.192;2023-03-03T13:03:40;20.07;;;12.07;;
7933;SDS011;4012;48.896;9.192;2023-03-03T13:06:30;21.30;;;15.27;;
7933;SDS011;4012;48.896;9.192;2023-03-03T13:09:02;22.83;;;13.23;;
7933;SDS011;4012;48.896;9.192;2023-03-03T13:14:38;18.40;;;12.70;;
7933;SDS011;4012;48.896;9.192;2023-03-03T13:19:56;19.47;;;14.20;;
7933;SDS011;4012;48.896;9.192;2023-03-03T13:22:35;23.10;;;14.70;;
7933;SDS011;4012;48.896;9.192;2023-03-03T13:25:36;19.93;;;12.93;;
7933;SDS011;4012;48.896;9.192;2023-03-03T13:30:51;22.53;;;13.17;;
7933;SDS011;4012;48.896;9.192;2023-03-03T13:33:41;19.77;;;14.00;;
7933;SDS011;4012;48.896;9.192;2023-03-03T13:36:15;19.60;;;13.20;;
7933;SDS011;4012;48.896;9.192;2023-03-03T13:38:49;18.73;;;12.80;;
7933;SDS011;4012;48.896;9.192;2023-03-03T13:41:20;19.10;;;13.33;;
7933;SDS011;4012;48.896;9.192;2023-03-03T13:43:51;21.50;;;13.23;;
7933;SDS011;4012;48.896;9.192;2023-03-03T13:46:39;22.37;;;14.27;;
7933;SDS011;4012;48.896;9.192;2023-03-03T13:52:05;18.73;;;12.60;;
7933;SDS011;4012;48.896;9.192;2023-03-03T13:57:19;20.53;;;13.60;;
7933;SDS011;4012;48.896;9.192;2023-03-03T14:00:20;17.63;;;12.33;;
7933;SDS011;4012;48.896;9.192;2023-03-03T14:05:52;20.57;;;14.03;;
7933;SDS011;4012;48.896;9.192;2023-03-03T14:13:41;22.33;;;14.43;;
7933;SDS011;4012;48.896;9.192;2023-03-03T14:16:33;26.43;;;13.53;;
7933;SDS011;4012;48.896;9.192;2023-03-03T14:19:17;20.83;;;12.70;;
7933;SDS011;4012;48.896;9.192;2023-03-03T14:25:08;23.30;;;13.93;;
7933;SDS011;4012;48.896;9.192;2023-03-03T14:27:40;21.43;;;15.20;;
7933;SDS011;4012;48.896;9.192;2023-03-03T14:33:04;20.57;;;14.23;;
7933;SDS011;4012;48.896;9.192;2023-03-03T14:38:16;19.40;;;13.33;;
7933;SDS011;4012;48.896;9.192;2023-03-03T14:40:44;20.50;;;13.60;;
7933;SDS011;4012;48.896;9.192;2023-03-03T14:45:49;21.30;;;13.53;;
7933;SDS011;4012;48.896;9.192;2023-03-03T14:48:21;22.13;;;14.87;;
7933;SDS011;4012;48.896;9.192;2023-03-03T14:50:58;18.27;;;13.43;;
7933;SDS011;4012;48.896;9.192;2023-03-03T14:53:44;21.97;;;13.83;;
7933;SDS011;4012;48.896;9.192;2023-03-03T14:56:23;21.27;;;13.47;;
7933;SDS011;4012;48.896;9.192;2023-03-03T14:58:54;26.47;;;14.17;;
7933;SDS011;4012;48.896;9.192;2023-03-03T15:01:41;21.53;;;14.87;;
7933;SDS011;4012;48.896;9.192;2023-03-03T15:04:09;20.80;;;14.63;;
7933;SDS011;4012;48.896;9.192;2023-03-03T15:06:55;23.10;;;14.47;;
7933;SDS011;4012;48.896;9.192;2023-03-03T15:09:38;20.47;;;14.53;;
7933;SDS011;4012;48.896;9.192;2023-03-03T15:12:39;19.90;;;14.53;;
7933;SDS011;4012;48.896;9.192;2023-03-03T15:17:33;26.73;;;13.63;;
7933;SDS011;4012;48.896;9.192;2023-03-03T15:33:39;23.70;;;12.93;;
7933;SDS011;4012;48.896;9.192;2023-03-03T15:36:19;21.13;;;13.60;;
7933;SDS011;4012;48.896;9.192;2023-03-03T15:55:16;24.03;;;15.23;;
7933;SDS011;4012;48.896;9.192;2023-03-03T16:03:01;24.23;;;13.50;;
7933;SDS011;4012;48.896;9.192;2023-03-03T16:08:34;20.03;;;13.40;;
7933;SDS011;4012;48.896;9.192;2023-03-03T16:11:18;20.23;;;13.43;;
7933;SDS011;4012;48.896;9.192;2023-03-03T16:13:50;19.53;;;13.03;;
7933;SDS011;4012;48.896;9.192;2023-03-03T16:17:00;21.03;;;13.43;;
7933;SDS011;4012;48.896;9.192;2023-03-03T16:20:01;21.73;;;12.77;;
7933;SDS011;4012;48.896;9.192;2023-03-03T16:27:51;21.50;;;13.63;;
7933;SDS011;4012;48.896;9.192;2023-03-03T16:30:35;20.30;;;12.67;;
7933;SDS011;4012;48.896;9.192;2023-03-03T16:41:51;21.30;;;13.97;;
7933;SDS011;4012;48.896;9.192;2023-03-03T16:47:18;24.70;;;15.53;;
7933;SDS011;4012;48.896;9.192;2023-03-03T16:55:36;21.67;;;13.77;;
7933;SDS011;4012;48.896;9.192;2023-03-03T17:01:30;24.10;;;14.17;;
7933;SDS011;4012;48.896;9.192;2023-03-03T17:04:28;26.00;;;16.17;;
7933;SDS011;4012;48.896;9.192;2023-03-03T17:07:18;24.67;;;14.97;;
7933;SDS011;4012;48.896;9.192;2023-03-03T17:10:02;22.03;;;14.00;;
7933;SDS011;4012;48.896;9.192;2023-03-03T17:21:02;20.67;;;14.13;;
7933;SDS011;4012;48.896;9.192;2023-03-03T17:26:47;23.87;;;16.30;;
7933;SDS011;4012;48.896;9.192;2023-03-03T17:29:40;19.70;;;14.20;;
7933;SDS011;4012;48.896;9.192;2023-03-03T17:32:36;24.53;;;14.70;;
7933;SDS011;4012;48.896;9.192;2023-03-03T17:43:16;22.17;;;15.13;;
7933;SDS011;4012;48.896;9.192;2023-03-03T17:45:48;23.13;;;15.13;;
7933;SDS011;4012;48.896;9.192;2023-03-03T17:58:43;25.23;;;14.87;;
7933;SDS011;4012;48.896;9.192;2023-03-03T18:04:34;23.93;;;15.23;;
7933;SDS011;4012;48.896;9.192;2023-03-03T18:10:14;23.83;;;15.03;;
7933;SDS011;4012;48.896;9.192;2023-03-03T18:18:55;25.53;;;14.60;;
7933;SDS011;4012;48.896;9.192;2023-03-03T18:21:27;29.27;;;16.63;;
7933;SDS011;4012;48.896;9.192;2023-03-03T18:24:52;32.87;;;16.93;;
7933;SDS011;4012;48.896;9.192;2023-03-03T18:26:49;30.83;;;15.43;;
7933;SDS011;4012;48.896;9.192;2023-03-03T18:29:24;27.07;;;15.43;;
7933;SDS011;4012;48.896;9.192;2023-03-03T18:36:52;26.53;;;16.90;;
7933;SDS011;4012;48.896;9.192;2023-03-03T18:39:40;27.30;;;15.57;;
7933;SDS011;4012;48.896;9.192;2023-03-03T18:44:49;31.20;;;17.63;;
7933;SDS011;4012;48.896;9.192;2023-03-03T18:47:16;27.27;;;14.93;;
7933;SDS011;4012;48.896;9.192;2023-03-03T18:52:29;30.10;;;17.30;;
7933;SDS011;4012;48.896;9.192;2023-03-03T18:55:00;27.73;;;17.03;;
7933;SDS011;4012;48.896;9.192;2023-03-03T18:57:33;24.77;;;16.43;;
7933;SDS011;4012;48.896;9.192;2023-03-03T19:00:21;24.80;;;15.43;;
7933;SDS011;4012;48.896;9.192;2023-03-03T19:02:52;28.37;;;16.67;;
7933;SDS011;4012;48.896;9.192;2023-03-03T19:06:05;29.57;;;18.50;;
7933;SDS011;4012;48.896;9.192;2023-03-03T19:08:24;29.63;;;17.80;;
7933;SDS011;4012;48.896;9.192;2023-03-03T19:11:00;31.77;;;18.30;;
7933;SDS011;4012;48.896;9.192;2023-03-03T19:16:05;28.80;;;19.13;;
7933;SDS011;4012;48.896;9.192;2023-03-03T19:18:34;30.93;;;18.87;;
7933;SDS011;4012;48.896;9.192;2023-03-03T19:21:21;34.63;;;18.93;;
7933;SDS011;4012;48.896;9.192;2023-03-03T19:23:51;30.27;;;18.47;;
7933;SDS011;4012;48.896;9.192;2023-03-03T19:29:12;30.07;;;19.53;;
7933;SDS011;4012;48.896;9.192;2023-03-03T19:31:55;33.73;;;21.70;;
7933;SDS011;4012;48.896;9.192;2023-03-03T19:34:47;33.13;;;20.17;;
7933;SDS011;4012;48.896;9.192;2023-03-03T19:40:21;28.00;;;17.63;;
7933;SDS011;4012;48.896;9.192;2023-03-03T19:51:58;26.07;;;15.50;;
7933;SDS011;4012;48.896;9.192;2023-03-03T19:57:34;29.80;;;17.33;;
7933;SDS011;4012;48.896;9.192;2023-03-03T20:05:47;28.03;;;17.03;;
7933;SDS011;4012;48.896;9.192;2023-03-03T20:16:48;27.80;;;16.63;;
7933;SDS011;4012;48.896;9.192;2023-03-03T20:28:00;30.83;;;16.23;;
7933;SDS011;4012;48.896;9.192;2023-03-03T20:33:51;28.20;;;16.00;;
7933;SDS011;4012;48.896;9.192;2023-03-03T20:39:07;24.50;;;15.30;;
7933;SDS011;4012;48.896;9.192;2023-03-03T20:41:44;27.43;;;16.70;;
7933;SDS011;4012;48.896;9.192;2023-03-03T20:49:54;30.40;;;16.97;;
7933;SDS011;4012;48.896;9.192;2023-03-03T20:55:46;24.43;;;15.77;;
7933;SDS011;4012;48.896;9.192;2023-03-03T21:01:06;28.50;;;16.03;;
7933;SDS011;4012;48.896;9.192;2023-03-03T21:03:48;24.00;;;14.73;;
7933;SDS011;4012;48.896;9.192;2023-03-03T21:06:14;25.47;;;15.67;;
7933;SDS011;4012;48.896;9.192;2023-03-03T21:08:51;25.73;;;15.33;;
7933;SDS011;4012;48.896;9.192;2023-03-03T21:11:20;24.20;;;15.00;;
7933;SDS011;4012;48.896;9.192;2023-03-03T21:13:50;24.80;;;15.20;;
7933;SDS011;4012;48.896;9.192;2023-03-03T21:21:57;24.93;;;14.87;;
7933;SDS011;4012;48.896;9.192;2023-03-03T21:30:05;26.77;;;17.48;;
7933;SDS011;4012;48.896;9.192;2023-03-03T21:35:17;25.97;;;16.10;;
7933;SDS011;4012;48.896;9.192;2023-03-03T21:42:41;26.33;;;16.10;;
7933;SDS011;4012;48.896;9.192;2023-03-03T21:45:09;28.33;;;15.13;;
7933;SDS011;4012;48.896;9.192;2023-03-03T21:47:36;26.27;;;15.67;;